KLRU

Las Cruces International Airport

Las Cruces, New Mexico, USA
METAR KLRU 221455Z AUTO 13008KT 10SM CLR 23/11 A3004 RMK AO2 T02300111
Observed Flight Rules
May-22 @ 14:55 UTC (32 minutes ago) Visual Flight Rules
Wind Visibility Clouds
130° at 8 knots 10 miles
  • Clear skies
Temperatures Readings
Current 23°C / 73°F
Dewpoint 11°C / 52°F
Humidity 47%
Altimeter 30.04" Hg
Pressure 1017 hPa
Elevation 1358
METAR KLRU 221455Z AUTO 13008KT 10SM CLR 23/11 A3004 RMK AO2 T02300111
Observed Flight Rules
May-22 @ 14:55 UTC
(32 minutes ago)
VFR
Wind Visibility
130° at 8 knots 10 miles
Clouds
  • Clear skies
Temperature Dewpoint
23°C / 73°F 11°C / 52°F
Humidity Altimeter Pressure
47% 30.04" Hg 1017 hPa